createdAt,value
2023-01-04T00:00:50.962Z,101606.13
2023-01-04T00:04:55.246Z,101581.38
2023-01-04T00:08:58.162Z,101569.72
2023-01-04T00:13:01.134Z,101564.69
2023-01-04T00:17:04.110Z,101547.41
2023-01-04T00:21:13.981Z,101539.94
2023-01-04T00:25:17.659Z,101536.22
2023-01-04T00:29:20.434Z,101525.78
2023-01-04T00:33:23.425Z,101515.38
2023-01-04T00:37:27.858Z,101504.94
2023-01-04T00:41:57.389Z,101485.13
2023-01-04T00:45:53.741Z,101484.53
2023-01-04T00:49:57.250Z,101477.00
2023-01-04T00:54:03.597Z,101471.59
2023-01-04T00:58:06.670Z,101464.28
2023-01-04T01:02:10.007Z,101445.53
2023-01-04T01:06:13.677Z,101444.09
2023-01-04T01:10:18.909Z,101426.78
2023-01-04T01:14:25.157Z,101438.25
2023-01-04T01:18:29.622Z,101414.50
2023-01-04T01:22:33.648Z,101412.63
2023-01-04T01:26:38.218Z,101401.13
2023-01-04T01:30:42.552Z,101395.31
2023-01-04T01:34:45.567Z,101401.31
2023-01-04T01:38:49.037Z,101389.25
2023-01-04T01:42:53.369Z,101386.94
2023-01-04T01:46:56.839Z,101379.03
2023-01-04T01:51:03.634Z,101373.41
2023-01-04T01:55:12.075Z,101385.69
2023-01-04T01:59:17.885Z,101373.00
2023-01-04T02:03:25.145Z,101366.31
2023-01-04T02:07:29.871Z,101339.00
2023-01-04T02:11:33.448Z,101318.59
2023-01-04T02:15:49.247Z,101310.47
2023-01-04T02:20:11.728Z,101295.91
2023-01-04T02:24:44.718Z,101283.41
2023-01-04T02:29:23.348Z,101292.75
2023-01-04T02:33:40.043Z,101293.81
2023-01-04T02:37:50.382Z,101287.53
2023-01-04T02:41:58.533Z,101277.16
2023-01-04T02:46:05.562Z,101266.69
2023-01-04T02:50:32.538Z,101260.25
2023-01-04T02:54:35.880Z,101253.38
2023-01-04T02:58:54.506Z,101244.63
2023-01-04T03:03:36.491Z,101224.81
2023-01-04T03:07:51.328Z,101216.88
2023-01-04T03:12:16.937Z,101219.38
2023-01-04T03:16:24.772Z,101219.38
2023-01-04T03:20:31.227Z,101204.34
2023-01-04T03:24:52.985Z,101201.59
2023-01-04T03:29:18.001Z,101176.59
2023-01-04T03:33:39.182Z,101177.78
2023-01-04T03:37:48.743Z,101159.03
2023-01-04T03:42:18.208Z,101166.09
2023-01-04T03:46:46.105Z,101152.72
2023-01-04T03:50:54.138Z,101140.41
2023-01-04T03:54:58.644Z,101149.31
2023-01-04T03:59:03.190Z,101142.81
2023-01-04T04:03:10.617Z,101133.00
2023-01-04T04:07:31.221Z,101122.50
2023-01-04T04:11:34.227Z,101108.88
2023-01-04T04:15:39.850Z,101145.97
2023-01-04T04:19:42.632Z,101135.94
2023-01-04T04:23:46.100Z,101139.66
2023-01-04T04:27:49.674Z,101127.53
2023-01-04T04:31:54.052Z,101114.38
2023-01-04T04:35:57.147Z,101130.00
2023-01-04T04:40:00.212Z,101107.22
2023-01-04T04:44:02.131Z,101106.16
2023-01-04T04:48:06.905Z,101100.91
2023-01-04T04:52:10.414Z,101098.78
2023-01-04T04:56:13.646Z,101095.63
2023-01-04T05:00:17.218Z,101095.63
2023-01-04T05:04:21.758Z,101074.31
2023-01-04T05:08:24.787Z,101081.63
2023-01-04T05:12:45.161Z,101088.63
2023-01-04T05:16:48.345Z,101069.63
2023-01-04T05:20:53.277Z,101074.00
2023-01-04T05:24:56.092Z,101082.91
2023-01-04T05:28:58.825Z,101065.72
2023-01-04T05:33:02.372Z,101055.91
2023-01-04T05:37:07.100Z,101059.81
2023-01-04T05:41:30.228Z,101063.75
2023-01-04T05:45:33.256Z,101051.59
2023-01-04T05:49:36.254Z,101044.31
2023-01-04T05:53:40.592Z,101010.28
2023-01-04T05:57:43.536Z,101042.19
2023-01-04T06:01:46.542Z,101011.84
2023-01-04T06:05:50.687Z,101022.50
2023-01-04T06:09:55.188Z,101010.56
2023-01-04T06:13:59.310Z,100995.47
2023-01-04T06:18:02.111Z,100982.63
2023-01-04T06:22:05.159Z,100973.88
2023-01-04T06:26:09.463Z,100980.72
2023-01-04T06:30:12.645Z,100967.88
2023-01-04T06:34:16.337Z,100964.13
2023-01-04T06:38:19.200Z,100968.75
2023-01-04T06:42:41.900Z,100966.38
2023-01-04T06:46:45.091Z,100976.66
2023-01-04T06:50:48.017Z,100978.53
2023-01-04T06:54:50.851Z,100979.72
2023-01-04T06:58:55.299Z,100999.94
2023-01-04T07:03:13.631Z,100992.38
2023-01-04T07:07:18.030Z,100963.97
2023-01-04T07:11:20.982Z,100957.06
2023-01-04T07:15:38.702Z,100961.44
2023-01-04T07:19:43.134Z,100942.97
2023-01-04T07:23:45.946Z,100926.88
2023-01-04T07:27:52.803Z,100951.00
2023-01-04T07:31:58.288Z,100963.78
2023-01-04T07:36:06.261Z,100944.66
2023-01-04T07:40:10.376Z,100952.91
2023-01-04T07:44:14.382Z,100950.91
2023-01-04T07:48:18.857Z,100953.88
2023-01-04T07:52:22.463Z,100930.00
2023-01-04T07:56:25.636Z,100959.78
2023-01-04T08:00:28.662Z,100941.34
2023-01-04T08:04:35.245Z,100936.72
2023-01-04T08:08:38.764Z,100935.91
2023-01-04T08:12:41.896Z,100940.88
2023-01-04T08:16:44.910Z,100924.31
2023-01-04T08:20:54.817Z,100928.13
2023-01-04T08:25:02.286Z,100924.91
2023-01-04T08:29:05.238Z,100925.16
2023-01-04T08:33:14.513Z,100926.47
2023-01-04T08:37:18.737Z,100913.69
2023-01-04T08:41:55.997Z,100917.22
2023-01-04T08:45:44.937Z,100911.56
2023-01-04T08:49:48.240Z,100919.13
2023-01-04T08:53:53.024Z,100914.75
2023-01-04T08:57:56.682Z,100928.81
2023-01-04T09:02:05.287Z,100915.22
2023-01-04T09:06:11.056Z,100902.94
2023-01-04T09:10:15.448Z,100914.03
2023-01-04T09:14:18.413Z,100905.88
2023-01-04T09:18:31.927Z,100891.94
2023-01-04T09:22:35.462Z,100898.78
2023-01-04T09:26:39.954Z,100896.19
2023-01-04T09:30:42.758Z,100906.69
2023-01-04T09:34:46.170Z,100904.69
2023-01-04T09:38:49.435Z,100898.41
2023-01-04T09:43:20.300Z,100887.66
2023-01-04T09:47:23.937Z,100889.28
2023-01-04T09:51:35.408Z,100886.94
2023-01-04T09:55:41.833Z,100905.75
2023-01-04T09:59:47.645Z,100894.84
2023-01-04T10:03:59.165Z,100900.03
2023-01-04T10:08:03.305Z,100892.34
2023-01-04T10:12:17.015Z,100904.66
2023-01-04T10:17:11.199Z,100905.34
2023-01-04T10:21:32.873Z,100889.59
2023-01-04T10:25:45.526Z,100893.97
2023-01-04T10:30:09.410Z,100892.53
2023-01-04T10:34:27.101Z,100888.25
2023-01-04T10:38:36.397Z,100883.63
2023-01-04T10:42:46.916Z,100887.28
2023-01-04T10:46:57.630Z,100882.19
2023-01-04T10:51:10.242Z,100888.78
2023-01-04T10:55:17.900Z,100882.75
2023-01-04T10:59:29.201Z,100890.53
2023-01-04T11:03:39.005Z,100871.22
2023-01-04T11:07:50.049Z,100862.22
2023-01-04T11:11:57.628Z,100863.41
2023-01-04T11:16:05.188Z,100840.53
2023-01-04T11:20:08.921Z,100849.53
2023-01-04T11:24:31.628Z,100866.22
2023-01-04T11:28:41.861Z,100840.28
2023-01-04T11:32:50.648Z,100836.59
2023-01-04T11:36:54.261Z,100836.03
2023-01-04T11:41:05.416Z,100830.81
2023-01-04T11:45:18.700Z,100828.19
2023-01-04T11:49:21.745Z,100814.25
2023-01-04T11:53:27.873Z,100821.56
2023-01-04T11:57:32.831Z,100817.53
2023-01-04T12:01:38.151Z,100813.16
2023-01-04T12:05:41.096Z,100814.34
2023-01-04T12:09:44.096Z,100813.84
2023-01-04T12:13:48.733Z,100790.72
2023-01-04T12:17:56.276Z,100790.47
2023-01-04T12:22:01.593Z,100782.31
2023-01-04T12:26:04.861Z,100779.59
2023-01-04T12:30:41.768Z,100774.97
2023-01-04T12:34:46.566Z,100776.59
2023-01-04T12:39:29.173Z,100779.34
2023-01-04T12:43:44.692Z,100813.41
2023-01-04T12:48:13.056Z,100797.16
2023-01-04T12:53:02.346Z,100797.16
2023-01-04T12:57:24.970Z,100783.63
2023-01-04T13:01:29.380Z,100782.84
2023-01-04T13:10:02.005Z,100787.09
2023-01-04T13:14:11.060Z,100784.38
2023-01-04T13:18:34.064Z,100782.47
2023-01-04T13:22:50.986Z,100774.94
2023-01-04T13:26:56.293Z,100781.53
2023-01-04T13:31:01.623Z,100797.13
2023-01-04T13:35:14.337Z,100779.44
2023-01-04T13:39:20.165Z,100795.06
2023-01-04T13:43:46.212Z,100779.88
2023-01-04T13:47:52.700Z,100774.16
2023-01-04T13:52:11.377Z,100785.38
2023-01-04T13:56:23.283Z,100793.06
2023-01-04T14:00:31.164Z,100784.97
2023-01-04T14:04:34.203Z,100762.88
2023-01-04T14:08:40.111Z,100763.13
2023-01-04T14:12:47.584Z,100767.50
2023-01-04T14:16:52.071Z,100755.25
2023-01-04T14:20:55.333Z,100747.34
2023-01-04T14:25:15.308Z,100750.38
2023-01-04T14:29:32.360Z,100750.38
2023-01-04T14:33:42.432Z,100748.78
2023-01-04T14:37:45.981Z,100743.34
2023-01-04T14:41:57.531Z,100740.59
2023-01-04T14:46:02.235Z,100746.31
2023-01-04T14:50:05.935Z,100752.09
2023-01-04T14:54:12.012Z,100759.72
2023-01-04T14:58:15.047Z,100755.06
2023-01-04T15:02:20.373Z,100746.63
2023-01-04T15:06:23.671Z,100746.63
2023-01-04T15:10:29.136Z,100725.06
2023-01-04T15:14:32.176Z,100732.72
2023-01-04T15:18:36.636Z,100721.81
2023-01-04T15:22:40.071Z,100740.91
2023-01-04T15:26:43.444Z,100739.59
2023-01-04T15:30:59.046Z,100739.34
2023-01-04T15:35:16.009Z,100760.16
2023-01-04T15:39:20.045Z,100769.09
2023-01-04T15:43:22.975Z,100760.34
2023-01-04T15:47:25.977Z,100753.53
2023-01-04T15:51:31.306Z,100760.34
2023-01-04T15:55:36.777Z,100760.34
2023-01-04T15:59:40.041Z,100757.59
2023-01-04T16:03:45.325Z,100759.19
2023-01-04T16:07:52.733Z,100761.59
2023-01-04T16:12:13.446Z,100763.78
2023-01-04T16:16:17.298Z,100771.69
2023-01-04T16:20:21.628Z,100770.88
2023-01-04T16:28:52.169Z,100754.19
2023-01-04T16:32:55.093Z,100758.31
2023-01-04T16:36:58.165Z,100764.59
2023-01-04T16:41:03.997Z,100769.22
2023-01-04T16:45:08.567Z,100767.88
2023-01-04T16:49:13.261Z,100769.78
2023-01-04T16:53:16.252Z,100772.78
2023-01-04T16:57:21.534Z,100774.09
2023-01-04T17:01:26.168Z,100789.06
2023-01-04T17:05:29.255Z,100768.81
2023-01-04T17:09:32.288Z,100774.78
2023-01-04T17:13:36.614Z,100758.91
2023-01-04T17:17:40.432Z,100766.22
2023-01-04T17:21:43.388Z,100773.59
2023-01-04T17:25:46.541Z,100774.63
2023-01-04T17:29:50.746Z,100768.06
2023-01-04T17:33:53.704Z,100770.19
2023-01-04T17:37:56.685Z,100782.16
2023-01-04T17:42:00.238Z,100775.63
2023-01-04T17:46:05.858Z,100766.63
2023-01-04T17:50:09.665Z,100782.16
2023-01-04T17:54:23.891Z,100769.19
2023-01-04T17:58:28.762Z,100764.50
2023-01-04T18:02:33.427Z,100777.63
2023-01-04T18:06:37.983Z,100776.81
2023-01-04T18:11:06.222Z,100779.28
2023-01-04T18:15:06.404Z,100771.34
2023-01-04T18:19:10.863Z,100765.06
2023-01-04T18:23:24.241Z,100788.78
2023-01-04T18:27:28.781Z,100785.50
2023-01-04T18:31:32.046Z,100800.78
2023-01-04T18:35:37.715Z,100773.75
2023-01-04T18:39:40.874Z,100790.94
2023-01-04T18:44:05.343Z,100763.91
2023-01-04T18:48:06.871Z,100782.16
2023-01-04T18:52:11.192Z,100788.44
2023-01-04T18:56:30.612Z,100807.22
2023-01-04T19:00:39.254Z,100804.50
2023-01-04T19:04:45.084Z,100797.13
2023-01-04T19:08:58.083Z,100787.78
2023-01-04T19:13:01.897Z,100799.22
2023-01-04T19:17:05.234Z,100801.94
2023-01-04T19:21:08.444Z,100803.75
2023-01-04T19:25:12.922Z,100815.41
2023-01-04T19:29:15.754Z,100815.09
2023-01-04T19:33:18.919Z,100813.81
2023-01-04T19:37:22.631Z,100805.50
2023-01-04T19:41:33.721Z,100821.19
2023-01-04T19:45:42.316Z,100830.69
2023-01-04T19:49:45.264Z,100826.28
2023-01-04T19:54:04.240Z,100840.97
2023-01-04T19:58:08.593Z,100845.59
2023-01-04T20:02:12.884Z,100829.50
2023-01-04T20:06:17.711Z,100840.16
2023-01-04T20:10:20.442Z,100847.84
2023-01-04T20:14:25.001Z,100845.84
2023-01-04T20:18:28.158Z,100842.31
2023-01-04T20:22:33.314Z,100848.34
2023-01-04T20:26:37.424Z,100836.03
2023-01-04T20:30:42.170Z,100845.25
2023-01-04T20:34:45.193Z,100853.44
2023-01-04T20:38:49.204Z,100845.25
2023-01-04T20:43:10.431Z,100838.97
2023-01-04T20:47:14.916Z,100847.53
2023-01-04T20:51:20.271Z,100851.00
2023-01-04T20:55:23.287Z,100860.25
2023-01-04T20:59:26.217Z,100861.06
2023-01-04T21:03:30.739Z,100866.75
2023-01-04T21:07:34.091Z,100863.44
2023-01-04T21:11:37.141Z,100870.69
2023-01-04T21:15:42.068Z,100877.78
2023-01-04T21:19:46.232Z,100878.03
2023-01-04T21:23:56.259Z,100874.16
2023-01-04T21:28:02.278Z,100894.66
2023-01-04T21:32:05.704Z,100853.69
2023-01-04T21:36:16.095Z,100867.22
2023-01-04T21:40:18.937Z,100872.31
2023-01-04T21:44:22.276Z,100882.63
2023-01-04T21:48:26.382Z,100885.34
2023-01-04T21:52:30.823Z,100888.91
2023-01-04T21:56:33.659Z,100885.81
2023-01-04T22:00:36.934Z,100900.16
2023-01-04T22:04:40.005Z,100897.91
2023-01-04T22:08:46.206Z,100906.31
2023-01-04T22:12:50.429Z,100905.00
2023-01-04T22:16:53.225Z,100907.97
2023-01-04T22:21:02.788Z,100918.59
2023-01-04T22:25:08.697Z,100908.31
2023-01-04T22:29:12.323Z,100898.97
2023-01-04T22:33:15.337Z,100901.59
2023-01-04T22:37:18.453Z,100926.56
2023-01-04T22:41:24.822Z,100908.69
2023-01-04T22:45:27.765Z,100920.16
2023-01-04T22:49:31.120Z,100931.06
2023-01-04T22:53:34.014Z,100922.66
2023-01-04T22:57:38.372Z,100943.84
2023-01-04T23:01:42.575Z,100935.09
2023-01-04T23:05:45.460Z,100939.22
2023-01-04T23:09:48.514Z,100954.47
2023-01-04T23:13:53.966Z,100944.41
2023-01-04T23:17:57.224Z,100949.03
2023-01-04T23:22:00.509Z,100963.34
2023-01-04T23:26:08.133Z,100969.72
2023-01-04T23:30:14.721Z,100976.16
2023-01-04T23:34:17.836Z,100980.97
2023-01-04T23:38:20.788Z,100982.03
2023-01-04T23:42:23.897Z,100981.47
2023-01-04T23:46:28.201Z,100990.44
2023-01-04T23:50:31.502Z,100975.78
2023-01-04T23:54:34.876Z,100990.56
2023-01-04T23:58:37.924Z,100974.69
